createdAt,value
2018-09-21T00:02:00.238Z,83.70
2018-09-21T00:04:28.619Z,80.70
2018-09-21T00:06:56.996Z,78.90
2018-09-21T00:09:25.410Z,78.90
2018-09-21T00:11:53.790Z,80.70
2018-09-21T00:14:22.157Z,73.93
2018-09-21T00:16:50.542Z,71.47
2018-09-21T00:19:18.984Z,95.33
2018-09-21T00:21:47.364Z,99.30
2018-09-21T00:24:15.723Z,111.50
2018-09-21T00:26:44.106Z,100.83
2018-09-21T00:29:12.458Z,92.80
2018-09-21T00:31:40.835Z,90.03
2018-09-21T00:34:09.201Z,82.73
2018-09-21T00:36:37.601Z,91.97
2018-09-21T00:39:08.547Z,101.27
2018-09-21T00:41:36.915Z,106.97
2018-09-21T00:44:06.040Z,108.20
2018-09-21T00:46:34.417Z,120.30
2018-09-21T00:49:02.976Z,151.20
2018-09-21T00:51:31.370Z,140.00
2018-09-21T00:53:59.864Z,119.23
2018-09-21T00:56:28.266Z,106.80
2018-09-21T00:58:56.650Z,112.60
2018-09-21T01:01:25.039Z,103.50
2018-09-21T01:03:53.536Z,105.27
2018-09-21T01:06:21.980Z,132.80
2018-09-21T01:08:50.578Z,181.50
2018-09-21T01:11:18.958Z,170.80
2018-09-21T01:13:47.556Z,157.07
2018-09-21T01:16:16.474Z,176.00
2018-09-21T01:18:44.950Z,166.17
2018-09-21T01:21:13.307Z,146.47
2018-09-21T01:23:41.789Z,146.97
2018-09-21T01:26:10.195Z,158.67
2018-09-21T01:28:38.590Z,161.87
2018-09-21T01:31:07.072Z,191.87
2018-09-21T01:33:35.523Z,178.33
2018-09-21T01:36:03.915Z,181.70
2018-09-21T01:38:32.335Z,194.20
2018-09-21T01:41:00.722Z,202.23
2018-09-21T01:43:29.078Z,226.63
2018-09-21T01:45:57.497Z,190.23
2018-09-21T01:48:25.967Z,190.13
2018-09-21T01:50:54.461Z,227.17
2018-09-21T01:53:22.927Z,212.90
2018-09-21T01:55:51.453Z,211.70
2018-09-21T01:58:19.839Z,177.40
2018-09-21T02:00:48.606Z,187.67
2018-09-21T02:03:17.043Z,157.43
2018-09-21T02:05:45.410Z,124.50
2018-09-21T02:08:13.799Z,119.03
2018-09-21T02:10:42.170Z,107.77
2018-09-21T02:13:10.555Z,113.47
2018-09-21T02:15:38.918Z,108.53
2018-09-21T02:18:07.300Z,100.67
2018-09-21T02:20:35.662Z,99.47
2018-09-21T02:23:04.048Z,85.53
2018-09-21T02:25:32.418Z,87.20
2018-09-21T02:28:00.803Z,76.87
2018-09-21T02:30:29.163Z,72.83
2018-09-21T02:32:57.535Z,74.77
2018-09-21T02:35:25.917Z,66.57
2018-09-21T02:37:54.290Z,64.10
2018-09-21T02:40:22.650Z,58.23
2018-09-21T02:42:51.031Z,60.63
2018-09-21T02:45:19.389Z,56.50
2018-09-21T02:47:47.751Z,51.33
2018-09-21T02:50:16.212Z,47.93
2018-09-21T02:52:44.562Z,55.37
2018-09-21T02:55:12.957Z,41.37
2018-09-21T02:57:41.407Z,46.27
2018-09-21T03:00:09.927Z,41.73
2018-09-21T03:02:38.407Z,39.57
2018-09-21T03:05:06.899Z,34.57
2018-09-21T03:07:35.271Z,30.43
2018-09-21T03:10:03.659Z,33.77
2018-09-21T03:12:32.006Z,35.23
2018-09-21T03:15:00.390Z,26.97
2018-09-21T03:17:28.783Z,25.90
2018-09-21T03:19:57.182Z,26.40
2018-09-21T03:22:25.383Z,27.13
2018-09-21T03:24:53.750Z,24.87
2018-09-21T03:27:22.122Z,24.17
2018-09-21T03:29:50.610Z,21.17
2018-09-21T03:32:18.965Z,22.93
2018-09-21T03:34:47.395Z,24.17
2018-09-21T03:37:15.727Z,17.97
2018-09-21T03:39:44.097Z,19.00
2018-09-21T03:42:12.482Z,17.73
2018-09-21T03:44:40.863Z,18.17
2018-09-21T03:47:09.246Z,19.13
2018-09-21T03:49:37.734Z,15.87
2018-09-21T03:52:06.550Z,15.17
2018-09-21T03:54:34.932Z,16.30
2018-09-21T03:57:03.299Z,14.63
2018-09-21T03:59:31.678Z,16.57
2018-09-21T04:02:00.059Z,13.67
2018-09-21T04:04:28.427Z,17.77
2018-09-21T04:06:56.793Z,16.00
2018-09-21T04:09:25.155Z,15.73
2018-09-21T04:11:53.542Z,24.07
2018-09-21T04:14:21.913Z,18.30
2018-09-21T04:16:50.370Z,18.70
2018-09-21T04:19:18.753Z,18.93
2018-09-21T04:21:47.129Z,17.37
2018-09-21T04:24:15.503Z,18.93
2018-09-21T04:26:43.874Z,20.50
2018-09-21T04:29:12.271Z,17.80
2018-09-21T04:31:40.630Z,19.13
2018-09-21T04:34:09.160Z,14.67
2018-09-21T04:36:37.530Z,14.00
2018-09-21T04:39:09.064Z,17.03
2018-09-21T04:41:37.981Z,14.33
2018-09-21T04:44:06.430Z,13.43
2018-09-21T04:46:34.815Z,16.90
2018-09-21T04:49:03.178Z,15.73
2018-09-21T04:51:31.526Z,14.60
2018-09-21T04:53:59.895Z,23.33
2018-09-21T04:56:28.280Z,17.13
2018-09-21T04:58:56.635Z,16.07
2018-09-21T05:01:25.242Z,19.77
2018-09-21T05:03:53.666Z,16.97
2018-09-21T05:06:22.579Z,17.20
2018-09-21T05:11:54.225Z,27.53
2018-09-21T05:14:22.660Z,33.70
2018-09-21T05:16:51.129Z,29.30
2018-09-21T05:19:19.516Z,24.40
2018-09-21T05:21:47.895Z,23.60
2018-09-21T05:24:16.293Z,24.67
2018-09-21T05:26:45.211Z,23.60
2018-09-21T05:29:14.539Z,26.90
2018-09-21T05:31:43.513Z,22.03
2018-09-21T05:34:11.963Z,23.13
2018-09-21T05:36:40.655Z,23.03
2018-09-21T05:39:11.275Z,21.53
2018-09-21T05:41:39.681Z,19.40
2018-09-21T05:44:08.352Z,21.47
2018-09-21T05:46:36.728Z,27.87
2018-09-21T05:49:05.132Z,29.10
2018-09-21T05:51:33.495Z,27.47
2018-09-21T05:54:01.884Z,25.87
2018-09-21T05:56:30.319Z,27.50
2018-09-21T05:58:58.715Z,22.47
2018-09-21T06:01:27.094Z,25.47
2018-09-21T06:03:55.495Z,28.23
2018-09-21T06:06:24.168Z,25.43
2018-09-21T06:08:52.538Z,22.30
2018-09-21T06:11:20.973Z,27.17
2018-09-21T06:13:49.455Z,25.77
2018-09-21T06:16:18.168Z,33.97
2018-09-21T06:18:46.531Z,33.53
2018-09-21T06:21:15.247Z,32.17
2018-09-21T06:23:43.558Z,36.33
2018-09-21T06:26:11.952Z,33.53
2018-09-21T06:28:40.314Z,54.17
2018-09-21T06:31:08.697Z,48.57
2018-09-21T06:33:37.119Z,53.40
2018-09-21T06:36:05.662Z,43.63
2018-09-21T06:38:34.110Z,42.60
2018-09-21T06:41:02.598Z,41.07
2018-09-21T06:43:30.944Z,48.87
2018-09-21T06:45:59.310Z,36.80
2018-09-21T06:48:27.719Z,37.27
2018-09-21T06:50:56.087Z,35.00
2018-09-21T06:53:24.463Z,34.30
2018-09-21T06:55:52.855Z,32.43
2018-09-21T06:58:21.315Z,25.43
2018-09-21T07:00:50.163Z,29.63
2018-09-21T07:03:18.586Z,29.47
2018-09-21T07:05:46.967Z,27.43
2018-09-21T07:08:15.395Z,35.47
2018-09-21T07:10:43.784Z,24.20
2018-09-21T07:13:12.163Z,24.63
2018-09-21T07:15:40.573Z,22.40
2018-09-21T07:18:08.951Z,19.87
2018-09-21T07:20:37.431Z,21.00
2018-09-21T07:23:05.818Z,29.50
2018-09-21T07:25:34.330Z,31.30
2018-09-21T07:28:02.955Z,33.60
2018-09-21T07:30:31.331Z,39.10
2018-09-21T07:32:59.718Z,32.90
2018-09-21T07:35:28.108Z,34.03
2018-09-21T07:37:56.502Z,33.63
2018-09-21T07:40:25.024Z,29.63
2018-09-21T07:42:53.438Z,27.83
2018-09-21T07:45:21.803Z,29.93
2018-09-21T07:47:50.175Z,27.17
2018-09-21T07:50:18.563Z,29.23
2018-09-21T07:52:46.923Z,28.23
2018-09-21T07:55:15.303Z,32.37
2018-09-21T07:57:43.659Z,28.43
2018-09-21T08:00:12.052Z,31.67
2018-09-21T08:02:40.425Z,24.47
2018-09-21T08:05:08.801Z,24.10
2018-09-21T08:07:37.180Z,25.53
2018-09-21T08:10:05.596Z,20.97
2018-09-21T08:12:34.069Z,22.50
2018-09-21T08:15:02.454Z,22.47
2018-09-21T08:17:30.844Z,22.00
2018-09-21T08:19:59.224Z,23.47
2018-09-21T08:22:27.617Z,26.30
2018-09-21T08:24:56.052Z,35.27
2018-09-21T08:27:24.463Z,37.40
2018-09-21T08:29:52.988Z,51.57
2018-09-21T08:32:22.369Z,42.03
2018-09-21T08:34:50.770Z,41.53
2018-09-21T08:37:19.189Z,42.17
2018-09-21T08:39:47.531Z,32.60
2018-09-21T08:42:15.910Z,33.27
2018-09-21T08:44:44.311Z,37.87
2018-09-21T08:47:13.635Z,35.63
2018-09-21T08:49:42.028Z,34.13
2018-09-21T08:52:10.411Z,31.10
2018-09-21T08:54:38.794Z,39.67
2018-09-21T08:57:07.207Z,40.57
2018-09-21T08:59:35.768Z,47.17
2018-09-21T09:02:04.238Z,43.80
2018-09-21T09:04:32.733Z,42.73
2018-09-21T09:07:01.231Z,44.80
2018-09-21T09:09:29.639Z,38.57
2018-09-21T09:11:58.080Z,34.30
2018-09-21T09:14:26.475Z,31.17
2018-09-21T09:16:54.864Z,32.97
2018-09-21T09:19:23.258Z,28.47
2018-09-21T09:21:51.661Z,29.60
2018-09-21T09:24:20.039Z,27.03
2018-09-21T09:26:48.470Z,29.40
2018-09-21T09:29:16.907Z,28.60
2018-09-21T09:31:45.759Z,25.67
2018-09-21T09:34:14.145Z,27.23
2018-09-21T09:36:42.623Z,26.40
2018-09-21T09:39:12.948Z,31.03
2018-09-21T09:41:41.603Z,46.43
2018-09-21T09:44:10.719Z,39.47
2018-09-21T09:46:39.185Z,37.87
2018-09-21T09:49:07.708Z,33.90
2018-09-21T09:51:36.147Z,42.67
2018-09-21T09:54:04.607Z,41.10
2018-09-21T09:56:33.007Z,45.10
2018-09-21T09:59:01.607Z,44.73
2018-09-21T10:01:30.019Z,46.73
2018-09-21T10:03:58.526Z,38.77
2018-09-21T10:06:26.890Z,37.53
2018-09-21T10:08:55.288Z,32.20
2018-09-21T10:11:23.759Z,30.43
2018-09-21T10:13:52.160Z,35.03
2018-09-21T10:16:20.638Z,51.37
2018-09-21T10:18:49.019Z,89.23
2018-09-21T10:21:17.482Z,62.00
2018-09-21T10:23:45.877Z,45.43
2018-09-21T10:26:14.264Z,44.00
2018-09-21T10:28:43.011Z,41.67
2018-09-21T10:31:11.064Z,41.90
2018-09-21T10:33:39.496Z,42.27
2018-09-21T10:36:07.830Z,43.77
2018-09-21T10:38:36.225Z,34.23
2018-09-21T10:41:04.613Z,45.00
2018-09-21T10:43:33.013Z,34.90
2018-09-21T10:46:01.477Z,30.87
2018-09-21T10:48:29.939Z,36.30
2018-09-21T10:50:58.396Z,36.37
2018-09-21T10:53:27.596Z,38.00
2018-09-21T10:55:55.960Z,44.57
2018-09-21T10:58:24.350Z,44.43
2018-09-21T11:00:52.769Z,44.93
2018-09-21T11:03:21.303Z,40.47
2018-09-21T11:05:49.719Z,44.53
2018-09-21T11:08:18.096Z,40.50
2018-09-21T11:10:46.518Z,41.63
2018-09-21T11:13:14.968Z,39.13
2018-09-21T11:15:43.338Z,38.67
2018-09-21T11:18:12.195Z,38.60
2018-09-21T11:20:40.646Z,37.53
2018-09-21T11:23:09.039Z,35.97
2018-09-21T11:25:37.412Z,34.17
2018-09-21T11:28:05.859Z,35.97
2018-09-21T11:30:34.235Z,34.57
2018-09-21T11:33:02.664Z,33.13
2018-09-21T11:35:31.083Z,28.30
2018-09-21T11:37:59.500Z,30.40
2018-09-21T11:40:27.956Z,27.90
2018-09-21T11:42:56.343Z,21.83
2018-09-21T11:45:24.939Z,26.90
2018-09-21T11:47:53.324Z,19.67
2018-09-21T11:50:21.899Z,22.00
2018-09-21T11:52:50.868Z,27.50
2018-09-21T11:55:19.268Z,17.93
2018-09-21T11:57:48.083Z,16.67
2018-09-21T12:00:16.685Z,20.63
2018-09-21T12:02:46.059Z,19.37
2018-09-21T12:05:14.997Z,18.77
2018-09-21T12:07:43.780Z,16.47
2018-09-21T12:10:12.610Z,14.07
2018-09-21T12:12:41.121Z,14.60
2018-09-21T12:15:09.693Z,13.77
2018-09-21T12:17:38.248Z,24.10
2018-09-21T12:20:07.011Z,25.10
2018-09-21T12:22:35.683Z,23.83
2018-09-21T12:25:04.168Z,27.27
2018-09-21T12:27:32.569Z,25.23
2018-09-21T12:30:01.024Z,22.83
2018-09-21T12:32:29.481Z,23.73
2018-09-21T12:34:57.857Z,18.87
2018-09-21T12:37:26.236Z,21.77
2018-09-21T12:39:54.705Z,19.17
2018-09-21T12:42:23.175Z,18.27
2018-09-21T12:44:51.561Z,14.70
2018-09-21T12:47:20.052Z,15.00
2018-09-21T12:49:48.438Z,17.03
2018-09-21T12:52:16.805Z,15.53
2018-09-21T12:54:45.193Z,16.27
2018-09-21T12:57:13.580Z,16.97
2018-09-21T12:59:42.056Z,15.57
2018-09-21T13:02:10.563Z,15.83
2018-09-21T13:04:38.936Z,14.77
2018-09-21T13:07:07.425Z,14.10
2018-09-21T13:09:35.896Z,17.53
2018-09-21T13:12:04.325Z,16.40
2018-09-21T13:14:32.873Z,19.13
2018-09-21T13:17:01.301Z,12.60
2018-09-21T13:19:31.291Z,13.97
2018-09-21T13:21:59.680Z,11.93
2018-09-21T13:24:28.050Z,12.50
2018-09-21T13:26:56.434Z,10.43
2018-09-21T13:29:24.812Z,13.60
2018-09-21T13:31:53.315Z,11.63
2018-09-21T13:34:21.723Z,8.30
2018-09-21T13:36:50.267Z,12.20
2018-09-21T13:39:18.684Z,9.60
2018-09-21T13:41:47.232Z,7.80
2018-09-21T13:44:15.729Z,12.10
2018-09-21T13:46:44.176Z,9.10
2018-09-21T13:49:12.561Z,9.33
2018-09-21T13:51:41.043Z,11.07
2018-09-21T13:54:09.448Z,12.67
2018-09-21T13:56:39.525Z,14.50
2018-09-21T13:59:07.989Z,14.23
2018-09-21T14:01:36.384Z,14.43
2018-09-21T14:04:04.781Z,15.10
2018-09-21T14:06:33.257Z,15.57
2018-09-21T14:09:01.755Z,14.00
2018-09-21T14:11:30.383Z,14.63
2018-09-21T14:13:58.868Z,16.97
2018-09-21T14:16:27.325Z,14.40
2018-09-21T14:18:56.389Z,21.07
2018-09-21T14:21:25.742Z,22.13
2018-09-21T14:23:54.720Z,19.50
2018-09-21T14:26:23.108Z,23.37
2018-09-21T14:28:51.578Z,20.27
2018-09-21T14:31:19.924Z,18.77
2018-09-21T14:33:48.358Z,19.60
2018-09-21T14:36:16.770Z,18.50
2018-09-21T14:38:45.590Z,21.87
2018-09-21T14:41:14.048Z,23.17
2018-09-21T14:43:42.839Z,19.33
2018-09-21T14:46:12.282Z,18.87
2018-09-21T14:48:42.132Z,17.80
2018-09-21T14:51:11.405Z,37.03
2018-09-21T14:53:40.052Z,26.27
2018-09-21T14:56:09.026Z,32.60
2018-09-21T14:58:37.948Z,28.77
2018-09-21T15:01:06.417Z,24.60
2018-09-21T15:03:34.852Z,21.13
2018-09-21T15:06:03.731Z,20.77
2018-09-21T15:08:32.227Z,16.73
2018-09-21T15:11:00.636Z,38.73
2018-09-21T15:13:29.039Z,60.57
2018-09-21T15:15:57.438Z,58.57
2018-09-21T15:18:26.191Z,44.17
2018-09-21T15:20:55.538Z,39.00
2018-09-21T15:23:23.960Z,32.50
2018-09-21T15:25:52.467Z,30.83
2018-09-21T15:28:20.974Z,30.47
2018-09-21T15:30:49.370Z,27.77
2018-09-21T15:33:18.053Z,31.30
2018-09-21T15:35:46.486Z,35.93
2018-09-21T15:38:14.959Z,65.73
2018-09-21T15:40:43.369Z,66.83
2018-09-21T15:43:11.994Z,62.17
2018-09-21T15:45:40.543Z,69.03
2018-09-21T15:48:09.243Z,45.67
2018-09-21T15:50:37.733Z,50.17
2018-09-21T15:53:06.220Z,35.53
2018-09-21T15:55:34.635Z,38.00
2018-09-21T15:58:03.060Z,41.33
2018-09-21T16:00:32.075Z,83.27
2018-09-21T16:03:00.510Z,125.63
2018-09-21T16:05:29.018Z,162.43
2018-09-21T16:07:57.456Z,127.63
2018-09-21T16:10:25.857Z,102.60
2018-09-21T16:12:54.261Z,91.50
2018-09-21T16:15:22.708Z,76.10
2018-09-21T16:17:51.188Z,76.40
2018-09-21T16:20:19.703Z,69.03
2018-09-21T16:22:48.127Z,65.70
2018-09-21T16:25:16.590Z,61.67
2018-09-21T16:27:45.030Z,64.13
2018-09-21T16:30:15.202Z,62.97
2018-09-21T16:32:43.651Z,61.77
2018-09-21T16:35:12.276Z,60.40
2018-09-21T16:37:40.728Z,55.67
2018-09-21T16:40:09.148Z,53.33
2018-09-21T16:42:37.600Z,50.73
2018-09-21T16:45:06.915Z,55.63
2018-09-21T16:47:35.656Z,56.13
2018-09-21T16:50:04.296Z,50.80
2018-09-21T16:52:32.897Z,47.57
2018-09-21T16:55:01.750Z,47.47
2018-09-21T16:57:30.522Z,36.67
2018-09-21T16:59:58.915Z,35.07
2018-09-21T17:02:27.307Z,31.70
2018-09-21T17:04:55.803Z,27.53
2018-09-21T17:07:24.195Z,25.20
2018-09-21T17:09:52.592Z,25.87
2018-09-21T17:12:21.575Z,29.07
2018-09-21T17:14:50.000Z,27.57
2018-09-21T17:17:18.383Z,24.57
2018-09-21T17:19:46.822Z,27.00
2018-09-21T17:22:15.258Z,21.97
2018-09-21T17:24:43.735Z,39.37
2018-09-21T17:27:12.354Z,52.00
2018-09-21T17:29:41.697Z,40.23
2018-09-21T17:32:10.160Z,48.87
2018-09-21T17:34:38.556Z,43.53
2018-09-21T17:37:07.132Z,39.83
2018-09-21T17:39:35.612Z,38.50
2018-09-21T17:42:04.025Z,35.57
2018-09-21T17:44:32.991Z,32.63
2018-09-21T17:47:01.477Z,31.93
2018-09-21T17:49:30.309Z,27.83
2018-09-21T17:51:58.736Z,26.27
2018-09-21T17:54:27.309Z,27.03
2018-09-21T17:56:55.832Z,33.87
2018-09-21T17:59:24.257Z,34.00
2018-09-21T18:01:52.730Z,26.87
2018-09-21T18:04:21.315Z,40.50
2018-09-21T18:06:50.005Z,31.10
2018-09-21T18:09:18.460Z,32.60
2018-09-21T18:11:46.856Z,31.37
2018-09-21T18:14:15.297Z,25.30
2018-09-21T18:16:43.685Z,25.90
2018-09-21T18:19:12.220Z,21.77
2018-09-21T18:21:40.852Z,24.30
2018-09-21T18:24:09.633Z,20.33
2018-09-21T18:26:38.179Z,25.80
2018-09-21T18:29:06.662Z,38.80
2018-09-21T18:31:35.745Z,36.00
2018-09-21T18:34:04.045Z,40.07
2018-09-21T18:36:32.441Z,78.37
2018-09-21T18:39:00.828Z,54.63
2018-09-21T18:41:29.303Z,34.83
2018-09-21T18:43:57.799Z,36.47
2018-09-21T18:46:26.294Z,35.37
2018-09-21T18:48:54.716Z,41.63
2018-09-21T18:51:23.208Z,32.23
2018-09-21T18:53:51.678Z,29.77
2018-09-21T18:56:20.060Z,34.27
2018-09-21T18:58:48.464Z,35.23
2018-09-21T19:01:17.503Z,34.07
2018-09-21T19:03:46.016Z,33.80
2018-09-21T19:06:14.547Z,27.20
2018-09-21T19:08:43.087Z,27.73
2018-09-21T19:11:11.614Z,27.27
2018-09-21T19:13:40.316Z,27.90
2018-09-21T19:16:09.046Z,22.73
2018-09-21T19:18:37.560Z,24.70
2018-09-21T19:21:06.471Z,22.00
2018-09-21T19:23:35.548Z,25.70
2018-09-21T19:26:04.354Z,24.70
2018-09-21T19:28:33.248Z,22.43
2018-09-21T19:31:02.095Z,20.33
2018-09-21T19:33:30.924Z,18.00
2018-09-21T19:36:00.532Z,16.37
2018-09-21T19:38:29.436Z,19.57
2018-09-21T19:40:58.586Z,19.83
2018-09-21T19:43:27.156Z,17.83
2018-09-21T19:45:55.623Z,15.80
2018-09-21T19:48:24.076Z,16.83
2018-09-21T19:50:52.491Z,18.67
2018-09-21T19:53:21.006Z,35.00
2018-09-21T19:55:49.408Z,31.97
2018-09-21T19:58:17.956Z,27.30
2018-09-21T20:00:46.397Z,30.17
2018-09-21T20:03:14.983Z,29.73
2018-09-21T20:05:43.316Z,37.47
2018-09-21T20:08:11.729Z,34.03
2018-09-21T20:10:40.392Z,37.10
2018-09-21T20:13:09.423Z,33.27
2018-09-21T20:15:37.884Z,36.47
2018-09-21T20:18:06.650Z,30.90
2018-09-21T20:20:35.098Z,31.73
2018-09-21T20:23:03.500Z,40.73
2018-09-21T20:25:32.819Z,56.30
2018-09-21T20:28:01.252Z,39.60
2018-09-21T20:30:35.164Z,35.70
2018-09-21T20:33:08.948Z,34.23
2018-09-21T20:35:37.475Z,29.53
2018-09-21T20:38:05.872Z,40.07
2018-09-21T20:40:34.360Z,40.10
2018-09-21T20:43:02.770Z,35.67
2018-09-21T20:45:31.259Z,37.57
2018-09-21T20:47:59.679Z,37.23
2018-09-21T20:50:28.141Z,33.53
2018-09-21T20:52:56.572Z,40.00
2018-09-21T20:55:24.985Z,36.67
2018-09-21T20:57:53.401Z,31.20
2018-09-21T21:00:21.836Z,28.03
2018-09-21T21:02:50.290Z,25.47
2018-09-21T21:05:18.729Z,23.30
2018-09-21T21:07:47.185Z,23.10
2018-09-21T21:10:15.770Z,23.97
2018-09-21T21:12:44.344Z,21.93
2018-09-21T21:15:12.751Z,22.57
2018-09-21T21:17:41.202Z,27.27
2018-09-21T21:20:09.612Z,21.43
2018-09-21T21:22:38.736Z,25.23
2018-09-21T21:25:07.204Z,19.23
2018-09-21T21:27:35.724Z,25.43
2018-09-21T21:30:04.244Z,24.23
2018-09-21T21:32:32.733Z,25.00
2018-09-21T21:35:01.405Z,23.20
2018-09-21T21:37:29.892Z,25.10
2018-09-21T21:39:58.485Z,28.83
2018-09-21T21:42:26.871Z,27.60
2018-09-21T21:44:55.270Z,33.67
2018-09-21T21:47:24.016Z,33.33
2018-09-21T21:49:52.391Z,32.77
2018-09-21T21:52:20.812Z,27.67
2018-09-21T21:54:49.222Z,25.80
2018-09-21T21:57:17.659Z,22.57
2018-09-21T21:59:46.174Z,28.13
2018-09-21T22:02:14.583Z,39.70
2018-09-21T22:04:43.169Z,28.30
2018-09-21T22:07:12.564Z,56.70
2018-09-21T22:09:41.057Z,48.07
2018-09-21T22:13:15.540Z,32.67
2018-09-21T22:15:44.068Z,24.83
2018-09-21T22:18:12.530Z,28.13
2018-09-21T22:20:40.912Z,24.33
2018-09-21T22:23:09.425Z,22.83
2018-09-21T22:25:37.863Z,25.57
2018-09-21T22:28:06.567Z,22.33
2018-09-21T22:30:34.983Z,17.57
2018-09-21T22:33:03.527Z,15.97
2018-09-21T22:35:31.920Z,17.33
2018-09-21T22:38:00.321Z,16.87
2018-09-21T22:40:28.776Z,16.67
2018-09-21T22:42:57.176Z,20.47
2018-09-21T22:45:25.596Z,22.43
2018-09-21T22:47:54.056Z,13.63
2018-09-21T22:50:22.434Z,15.00
2018-09-21T22:52:50.806Z,14.00
2018-09-21T22:55:19.248Z,15.03
2018-09-21T22:57:47.652Z,22.97
2018-09-21T23:00:16.047Z,24.77
2018-09-21T23:02:44.507Z,19.63
2018-09-21T23:05:12.928Z,22.33
2018-09-21T23:07:41.309Z,19.33
2018-09-21T23:10:09.700Z,20.90
2018-09-21T23:12:38.104Z,17.50
2018-09-21T23:15:06.590Z,18.40
2018-09-21T23:17:35.031Z,17.10
2018-09-21T23:20:03.443Z,20.33
2018-09-21T23:22:32.031Z,22.47
2018-09-21T23:25:00.454Z,22.20
2018-09-21T23:27:28.924Z,24.90
2018-09-21T23:29:57.315Z,32.00
2018-09-21T23:32:25.696Z,63.53
2018-09-21T23:34:54.080Z,52.77
2018-09-21T23:37:22.459Z,39.60
2018-09-21T23:39:50.932Z,41.43
2018-09-21T23:42:19.425Z,50.63
2018-09-21T23:44:47.825Z,51.87
2018-09-21T23:47:16.237Z,62.03
2018-09-21T23:49:44.700Z,65.60
2018-09-21T23:52:13.094Z,69.27
2018-09-21T23:54:41.474Z,66.83
2018-09-21T23:57:09.859Z,56.70
2018-09-21T23:59:38.228Z,51.80
